sensor_id;sensor_type;location;lat;lon;timestamp;temperature;humidity
5172;DHT22;2605;49.770;9.868;2023-10-08T00:02:18;16.20;99.90
5172;DHT22;2605;49.770;9.868;2023-10-08T00:04:48;16.10;99.90
5172;DHT22;2605;49.770;9.868;2023-10-08T00:07:17;16.10;99.90
5172;DHT22;2605;49.770;9.868;2023-10-08T00:09:50;16.10;99.90
5172;DHT22;2605;49.770;9.868;2023-10-08T00:12:17;16.00;99.90
5172;DHT22;2605;49.770;9.868;2023-10-08T00:14:43;16.00;99.90
5172;DHT22;2605;49.770;9.868;2023-10-08T00:17:13;16.00;99.90
5172;DHT22;2605;49.770;9.868;2023-10-08T00:19:39;16.00;99.90
5172;DHT22;2605;49.770;9.868;2023-10-08T00:22:06;16.00;99.90
5172;DHT22;2605;49.770;9.868;2023-10-08T00:24:33;16.00;99.90
5172;DHT22;2605;49.770;9.868;2023-10-08T00:26:59;15.90;99.90
5172;DHT22;2605;49.770;9.868;2023-10-08T00:29:26;15.90;99.90
5172;DHT22;2605;49.770;9.868;2023-10-08T00:31:52;15.90;99.90
5172;DHT22;2605;49.770;9.868;2023-10-08T00:34:18;15.80;99.90
5172;DHT22;2605;49.770;9.868;2023-10-08T00:36:48;15.80;99.90
5172;DHT22;2605;49.770;9.868;2023-10-08T00:39:14;15.80;99.90
5172;DHT22;2605;49.770;9.868;2023-10-08T00:41:44;15.70;99.90
5172;DHT22;2605;49.770;9.868;2023-10-08T00:44:11;15.70;99.90
5172;DHT22;2605;49.770;9.868;2023-10-08T00:46:49;15.70;99.90
5172;DHT22;2605;49.770;9.868;2023-10-08T00:49:16;15.70;99.90
5172;DHT22;2605;49.770;9.868;2023-10-08T00:52:06;15.60;99.90
5172;DHT22;2605;49.770;9.868;2023-10-08T00:54:34;15.70;99.90
5172;DHT22;2605;49.770;9.868;2023-10-08T00:57:22;15.60;99.90
5172;DHT22;2605;49.770;9.868;2023-10-08T00:59:49;15.60;99.90
5172;DHT22;2605;49.770;9.868;2023-10-08T01:02:29;15.60;99.90
5172;DHT22;2605;49.770;9.868;2023-10-08T01:05:11;15.60;99.90
5172;DHT22;2605;49.770;9.868;2023-10-08T01:07:39;15.60;99.90
5172;DHT22;2605;49.770;9.868;2023-10-08T01:10:09;15.60;99.90
5172;DHT22;2605;49.770;9.868;2023-10-08T01:12:36;15.50;99.90
5172;DHT22;2605;49.770;9.868;2023-10-08T01:15:14;15.60;99.90
5172;DHT22;2605;49.770;9.868;2023-10-08T01:17:48;15.60;99.90
5172;DHT22;2605;49.770;9.868;2023-10-08T01:20:23;15.50;99.90
5172;DHT22;2605;49.770;9.868;2023-10-08T01:23:00;15.60;99.90
5172;DHT22;2605;49.770;9.868;2023-10-08T01:25:35;15.60;99.90
5172;DHT22;2605;49.770;9.868;2023-10-08T01:28:01;15.60;99.90
5172;DHT22;2605;49.770;9.868;2023-10-08T01:30:40;15.50;99.90
5172;DHT22;2605;49.770;9.868;2023-10-08T01:33:12;15.50;99.90
5172;DHT22;2605;49.770;9.868;2023-10-08T01:35:39;15.50;99.90
5172;DHT22;2605;49.770;9.868;2023-10-08T01:38:05;15.50;99.90
5172;DHT22;2605;49.770;9.868;2023-10-08T01:40:32;15.50;99.90
5172;DHT22;2605;49.770;9.868;2023-10-08T01:42:58;15.50;99.90
5172;DHT22;2605;49.770;9.868;2023-10-08T01:45:29;15.50;99.90
5172;DHT22;2605;49.770;9.868;2023-10-08T01:47:55;15.50;99.90
5172;DHT22;2605;49.770;9.868;2023-10-08T01:50:22;15.40;99.90
5172;DHT22;2605;49.770;9.868;2023-10-08T01:52:48;15.40;99.90
5172;DHT22;2605;49.770;9.868;2023-10-08T01:55:14;15.40;99.90
5172;DHT22;2605;49.770;9.868;2023-10-08T01:57:44;15.40;99.90
5172;DHT22;2605;49.770;9.868;2023-10-08T02:00:10;15.40;99.90
5172;DHT22;2605;49.770;9.868;2023-10-08T02:02:36;15.40;99.90
5172;DHT22;2605;49.770;9.868;2023-10-08T02:05:02;15.40;99.90
5172;DHT22;2605;49.770;9.868;2023-10-08T02:07:29;15.40;99.90
5172;DHT22;2605;49.770;9.868;2023-10-08T02:09:56;15.40;99.90
5172;DHT22;2605;49.770;9.868;2023-10-08T02:12:22;15.40;99.90
5172;DHT22;2605;49.770;9.868;2023-10-08T02:14:48;15.40;99.90
5172;DHT22;2605;49.770;9.868;2023-10-08T02:17:14;15.50;99.90
5172;DHT22;2605;49.770;9.868;2023-10-08T02:19:39;15.60;99.90
5172;DHT22;2605;49.770;9.868;2023-10-08T02:22:07;15.60;99.90
5172;DHT22;2605;49.770;9.868;2023-10-08T02:24:35;15.70;99.90
5172;DHT22;2605;49.770;9.868;2023-10-08T02:27:01;15.80;99.90
5172;DHT22;2605;49.770;9.868;2023-10-08T02:29:30;15.80;99.90
5172;DHT22;2605;49.770;9.868;2023-10-08T02:31:56;15.80;99.90
5172;DHT22;2605;49.770;9.868;2023-10-08T02:34:22;15.80;99.90
5172;DHT22;2605;49.770;9.868;2023-10-08T02:36:47;15.80;99.90
5172;DHT22;2605;49.770;9.868;2023-10-08T02:39:14;15.70;99.90
5172;DHT22;2605;49.770;9.868;2023-10-08T02:41:40;15.80;99.90
5172;DHT22;2605;49.770;9.868;2023-10-08T02:44:12;15.80;99.90
5172;DHT22;2605;49.770;9.868;2023-10-08T02:46:46;15.80;99.90
5172;DHT22;2605;49.770;9.868;2023-10-08T02:49:16;15.80;99.90
5172;DHT22;2605;49.770;9.868;2023-10-08T02:51:54;15.70;99.90
5172;DHT22;2605;49.770;9.868;2023-10-08T02:54:21;15.70;99.90
5172;DHT22;2605;49.770;9.868;2023-10-08T02:56:57;15.70;99.90
5172;DHT22;2605;49.770;9.868;2023-10-08T02:59:32;15.70;99.90
5172;DHT22;2605;49.770;9.868;2023-10-08T03:02:08;15.70;99.90
5172;DHT22;2605;49.770;9.868;2023-10-08T03:05:00;15.80;99.90
5172;DHT22;2605;49.770;9.868;2023-10-08T03:07:26;15.80;99.90
5172;DHT22;2605;49.770;9.868;2023-10-08T03:10:00;15.80;99.90
5172;DHT22;2605;49.770;9.868;2023-10-08T03:12:31;15.70;99.90
5172;DHT22;2605;49.770;9.868;2023-10-08T03:15:01;15.60;99.90
5172;DHT22;2605;49.770;9.868;2023-10-08T03:17:38;15.60;99.90
5172;DHT22;2605;49.770;9.868;2023-10-08T03:20:04;15.60;99.90
5172;DHT22;2605;49.770;9.868;2023-10-08T03:22:48;15.60;99.90
5172;DHT22;2605;49.770;9.868;2023-10-08T03:25:15;15.60;99.90
5172;DHT22;2605;49.770;9.868;2023-10-08T03:27:41;15.60;99.90
5172;DHT22;2605;49.770;9.868;2023-10-08T03:30:08;15.60;99.90
5172;DHT22;2605;49.770;9.868;2023-10-08T03:32:40;15.50;99.90
5172;DHT22;2605;49.770;9.868;2023-10-08T03:35:07;15.70;99.90
5172;DHT22;2605;49.770;9.868;2023-10-08T03:37:36;15.70;99.90
5172;DHT22;2605;49.770;9.868;2023-10-08T03:40:07;15.70;99.90
5172;DHT22;2605;49.770;9.868;2023-10-08T03:42:51;15.80;99.90
5172;DHT22;2605;49.770;9.868;2023-10-08T03:45:16;15.80;99.90
5172;DHT22;2605;49.770;9.868;2023-10-08T03:48:02;15.70;99.90
5172;DHT22;2605;49.770;9.868;2023-10-08T03:50:37;15.70;99.90
5172;DHT22;2605;49.770;9.868;2023-10-08T03:53:07;15.60;99.90
5172;DHT22;2605;49.770;9.868;2023-10-08T03:55:38;15.60;99.90
5172;DHT22;2605;49.770;9.868;2023-10-08T03:58:06;15.60;99.90
5172;DHT22;2605;49.770;9.868;2023-10-08T04:00:36;15.60;99.90
5172;DHT22;2605;49.770;9.868;2023-10-08T04:03:07;15.50;99.90
5172;DHT22;2605;49.770;9.868;2023-10-08T04:05:53;15.60;99.90
5172;DHT22;2605;49.770;9.868;2023-10-08T04:08:39;15.60;99.90
5172;DHT22;2605;49.770;9.868;2023-10-08T04:11:11;15.50;99.90
5172;DHT22;2605;49.770;9.868;2023-10-08T04:13:57;15.50;99.90
5172;DHT22;2605;49.770;9.868;2023-10-08T04:16:28;15.50;99.90
5172;DHT22;2605;49.770;9.868;2023-10-08T04:18:54;15.40;99.90
5172;DHT22;2605;49.770;9.868;2023-10-08T04:21:22;15.50;99.90
5172;DHT22;2605;49.770;9.868;2023-10-08T04:23:48;15.40;99.90
5172;DHT22;2605;49.770;9.868;2023-10-08T04:26:19;15.50;99.90
5172;DHT22;2605;49.770;9.868;2023-10-08T04:28:51;15.50;99.90
5172;DHT22;2605;49.770;9.868;2023-10-08T04:31:20;15.50;99.90
5172;DHT22;2605;49.770;9.868;2023-10-08T04:33:50;15.60;99.90
5172;DHT22;2605;49.770;9.868;2023-10-08T04:36:16;15.50;99.90
5172;DHT22;2605;49.770;9.868;2023-10-08T04:38:45;15.50;99.90
5172;DHT22;2605;49.770;9.868;2023-10-08T04:41:15;15.40;99.90
5172;DHT22;2605;49.770;9.868;2023-10-08T04:43:44;15.30;99.90
5172;DHT22;2605;49.770;9.868;2023-10-08T04:46:10;15.30;99.90
5172;DHT22;2605;49.770;9.868;2023-10-08T04:48:48;15.30;99.90
5172;DHT22;2605;49.770;9.868;2023-10-08T04:51:16;15.40;99.90
5172;DHT22;2605;49.770;9.868;2023-10-08T04:53:43;15.30;99.90
5172;DHT22;2605;49.770;9.868;2023-10-08T04:56:11;15.30;99.90
5172;DHT22;2605;49.770;9.868;2023-10-08T04:58:45;15.30;99.90
5172;DHT22;2605;49.770;9.868;2023-10-08T05:01:13;15.30;99.90
5172;DHT22;2605;49.770;9.868;2023-10-08T05:04:06;15.20;99.90
5172;DHT22;2605;49.770;9.868;2023-10-08T05:06:48;15.20;99.90
5172;DHT22;2605;49.770;9.868;2023-10-08T05:09:14;15.20;99.90
5172;DHT22;2605;49.770;9.868;2023-10-08T05:11:46;15.20;99.90
5172;DHT22;2605;49.770;9.868;2023-10-08T05:14:30;15.10;99.90
5172;DHT22;2605;49.770;9.868;2023-10-08T05:17:03;15.00;99.90
5172;DHT22;2605;49.770;9.868;2023-10-08T05:19:38;14.90;99.90
5172;DHT22;2605;49.770;9.868;2023-10-08T05:22:11;14.90;99.90
5172;DHT22;2605;49.770;9.868;2023-10-08T05:24:58;14.90;99.90
5172;DHT22;2605;49.770;9.868;2023-10-08T05:27:44;14.80;99.90
5172;DHT22;2605;49.770;9.868;2023-10-08T05:30:16;14.80;99.90
5172;DHT22;2605;49.770;9.868;2023-10-08T05:32:52;14.80;99.90
5172;DHT22;2605;49.770;9.868;2023-10-08T05:35:38;14.80;99.90
5172;DHT22;2605;49.770;9.868;2023-10-08T05:38:20;14.80;99.90
5172;DHT22;2605;49.770;9.868;2023-10-08T05:41:00;14.70;99.90
5172;DHT22;2605;49.770;9.868;2023-10-08T05:43:34;14.80;99.90
5172;DHT22;2605;49.770;9.868;2023-10-08T05:46:12;14.80;99.90
5172;DHT22;2605;49.770;9.868;2023-10-08T05:48:58;14.80;99.90
5172;DHT22;2605;49.770;9.868;2023-10-08T05:51:37;14.80;99.90
5172;DHT22;2605;49.770;9.868;2023-10-08T05:54:24;14.80;99.90
5172;DHT22;2605;49.770;9.868;2023-10-08T05:57:05;14.70;99.90
5172;DHT22;2605;49.770;9.868;2023-10-08T05:59:47;14.70;99.90
5172;DHT22;2605;49.770;9.868;2023-10-08T06:02:40;14.70;99.90
5172;DHT22;2605;49.770;9.868;2023-10-08T06:05:12;14.70;99.90
5172;DHT22;2605;49.770;9.868;2023-10-08T06:07:38;14.60;99.90
5172;DHT22;2605;49.770;9.868;2023-10-08T06:10:26;14.60;99.90
5172;DHT22;2605;49.770;9.868;2023-10-08T06:13:05;14.60;99.90
5172;DHT22;2605;49.770;9.868;2023-10-08T06:15:43;14.70;99.90
5172;DHT22;2605;49.770;9.868;2023-10-08T06:18:23;14.70;99.90
5172;DHT22;2605;49.770;9.868;2023-10-08T06:20:52;14.70;99.90
5172;DHT22;2605;49.770;9.868;2023-10-08T06:23:20;14.70;99.90
5172;DHT22;2605;49.770;9.868;2023-10-08T06:25:52;14.80;99.90
5172;DHT22;2605;49.770;9.868;2023-10-08T06:28:25;14.80;99.90
5172;DHT22;2605;49.770;9.868;2023-10-08T06:30:53;14.80;99.90
5172;DHT22;2605;49.770;9.868;2023-10-08T06:33:23;14.80;99.90
5172;DHT22;2605;49.770;9.868;2023-10-08T06:36:03;14.80;99.90
5172;DHT22;2605;49.770;9.868;2023-10-08T06:38:46;14.90;99.90
5172;DHT22;2605;49.770;9.868;2023-10-08T06:41:15;14.90;99.90
5172;DHT22;2605;49.770;9.868;2023-10-08T06:43:44;15.00;99.90
5172;DHT22;2605;49.770;9.868;2023-10-08T06:46:15;15.00;99.90
5172;DHT22;2605;49.770;9.868;2023-10-08T06:48:45;15.00;99.90
5172;DHT22;2605;49.770;9.868;2023-10-08T06:51:11;15.00;99.90
5172;DHT22;2605;49.770;9.868;2023-10-08T06:53:41;15.00;99.90
5172;DHT22;2605;49.770;9.868;2023-10-08T06:56:07;15.10;99.90
5172;DHT22;2605;49.770;9.868;2023-10-08T06:58:35;15.20;99.90
5172;DHT22;2605;49.770;9.868;2023-10-08T07:01:01;15.20;99.90
5172;DHT22;2605;49.770;9.868;2023-10-08T07:03:33;15.10;99.90
5172;DHT22;2605;49.770;9.868;2023-10-08T07:05:59;15.10;99.90
5172;DHT22;2605;49.770;9.868;2023-10-08T07:08:26;15.10;99.90
5172;DHT22;2605;49.770;9.868;2023-10-08T07:10:53;15.20;99.90
5172;DHT22;2605;49.770;9.868;2023-10-08T07:13:20;15.10;99.90
5172;DHT22;2605;49.770;9.868;2023-10-08T07:15:50;15.10;99.90
5172;DHT22;2605;49.770;9.868;2023-10-08T07:18:16;15.10;99.90
5172;DHT22;2605;49.770;9.868;2023-10-08T07:20:50;15.10;99.90
5172;DHT22;2605;49.770;9.868;2023-10-08T07:23:20;15.20;99.90
5172;DHT22;2605;49.770;9.868;2023-10-08T07:25:57;15.20;99.90
5172;DHT22;2605;49.770;9.868;2023-10-08T07:28:44;15.20;99.90
5172;DHT22;2605;49.770;9.868;2023-10-08T07:31:14;15.30;99.90
5172;DHT22;2605;49.770;9.868;2023-10-08T07:33:43;15.30;99.90
5172;DHT22;2605;49.770;9.868;2023-10-08T07:36:12;15.30;99.90
5172;DHT22;2605;49.770;9.868;2023-10-08T07:38:40;15.40;99.90
5172;DHT22;2605;49.770;9.868;2023-10-08T07:41:10;15.50;99.90
5172;DHT22;2605;49.770;9.868;2023-10-08T07:43:46;15.50;99.90
5172;DHT22;2605;49.770;9.868;2023-10-08T07:46:21;15.60;99.90
5172;DHT22;2605;49.770;9.868;2023-10-08T07:48:47;15.70;99.90
5172;DHT22;2605;49.770;9.868;2023-10-08T07:51:14;15.70;99.90
5172;DHT22;2605;49.770;9.868;2023-10-08T07:53:40;15.70;99.90
5172;DHT22;2605;49.770;9.868;2023-10-08T07:56:07;15.80;99.90
5172;DHT22;2605;49.770;9.868;2023-10-08T07:58:34;15.90;99.90
5172;DHT22;2605;49.770;9.868;2023-10-08T08:01:03;16.10;99.90
5172;DHT22;2605;49.770;9.868;2023-10-08T08:03:31;16.30;99.90
5172;DHT22;2605;49.770;9.868;2023-10-08T08:05:57;16.50;99.90
5172;DHT22;2605;49.770;9.868;2023-10-08T08:08:24;16.70;99.90
5172;DHT22;2605;49.770;9.868;2023-10-08T08:10:52;16.80;99.90
5172;DHT22;2605;49.770;9.868;2023-10-08T08:13:23;16.80;99.90
5172;DHT22;2605;49.770;9.868;2023-10-08T08:15:53;16.90;99.90
5172;DHT22;2605;49.770;9.868;2023-10-08T08:18:24;17.00;99.90
5172;DHT22;2605;49.770;9.868;2023-10-08T08:20:49;17.00;99.90
5172;DHT22;2605;49.770;9.868;2023-10-08T08:23:15;17.10;99.90
5172;DHT22;2605;49.770;9.868;2023-10-08T08:25:42;17.20;99.90
5172;DHT22;2605;49.770;9.868;2023-10-08T08:28:22;17.20;99.90
5172;DHT22;2605;49.770;9.868;2023-10-08T08:30:50;17.30;99.90
5172;DHT22;2605;49.770;9.868;2023-10-08T08:33:18;17.20;99.90
5172;DHT22;2605;49.770;9.868;2023-10-08T08:35:58;17.10;99.90
5172;DHT22;2605;49.770;9.868;2023-10-08T08:38:25;17.20;99.90
5172;DHT22;2605;49.770;9.868;2023-10-08T08:40:50;17.10;99.90
5172;DHT22;2605;49.770;9.868;2023-10-08T08:43:17;17.00;99.90
5172;DHT22;2605;49.770;9.868;2023-10-08T08:45:44;17.10;99.90
5172;DHT22;2605;49.770;9.868;2023-10-08T08:48:15;17.10;99.90
5172;DHT22;2605;49.770;9.868;2023-10-08T08:50:42;17.10;99.90
5172;DHT22;2605;49.770;9.868;2023-10-08T08:53:09;17.10;99.90
5172;DHT22;2605;49.770;9.868;2023-10-08T08:55:35;17.10;99.90
5172;DHT22;2605;49.770;9.868;2023-10-08T08:58:01;17.10;99.90
5172;DHT22;2605;49.770;9.868;2023-10-08T09:00:30;17.00;99.90
5172;DHT22;2605;49.770;9.868;2023-10-08T09:02:56;17.10;99.90
5172;DHT22;2605;49.770;9.868;2023-10-08T09:05:22;17.10;99.90
5172;DHT22;2605;49.770;9.868;2023-10-08T09:07:57;17.20;99.90
5172;DHT22;2605;49.770;9.868;2023-10-08T09:10:25;17.20;99.90
5172;DHT22;2605;49.770;9.868;2023-10-08T09:12:54;17.20;99.90
5172;DHT22;2605;49.770;9.868;2023-10-08T09:15:24;17.40;99.90
5172;DHT22;2605;49.770;9.868;2023-10-08T09:17:49;17.50;99.90
5172;DHT22;2605;49.770;9.868;2023-10-08T09:20:17;17.50;99.90
5172;DHT22;2605;49.770;9.868;2023-10-08T09:22:42;17.60;99.90
5172;DHT22;2605;49.770;9.868;2023-10-08T09:25:08;17.60;99.90
5172;DHT22;2605;49.770;9.868;2023-10-08T09:27:34;17.50;99.90
5172;DHT22;2605;49.770;9.868;2023-10-08T09:30:06;17.70;99.90
5172;DHT22;2605;49.770;9.868;2023-10-08T09:32:34;17.80;99.90
5172;DHT22;2605;49.770;9.868;2023-10-08T09:35:00;17.80;99.90
5172;DHT22;2605;49.770;9.868;2023-10-08T09:37:27;17.80;99.90
5172;DHT22;2605;49.770;9.868;2023-10-08T09:39:54;18.00;99.90
5172;DHT22;2605;49.770;9.868;2023-10-08T09:42:21;17.80;99.90
5172;DHT22;2605;49.770;9.868;2023-10-08T09:44:48;18.00;99.90
5172;DHT22;2605;49.770;9.868;2023-10-08T09:47:20;17.90;99.90
5172;DHT22;2605;49.770;9.868;2023-10-08T09:50:01;17.80;99.90
5172;DHT22;2605;49.770;9.868;2023-10-08T09:52:33;17.80;99.90
5172;DHT22;2605;49.770;9.868;2023-10-08T09:55:06;17.70;99.90
5172;DHT22;2605;49.770;9.868;2023-10-08T09:57:35;17.60;99.90
5172;DHT22;2605;49.770;9.868;2023-10-08T10:00:01;17.70;99.90
5172;DHT22;2605;49.770;9.868;2023-10-08T10:02:30;17.70;99.90
5172;DHT22;2605;49.770;9.868;2023-10-08T10:04:56;17.80;99.90
5172;DHT22;2605;49.770;9.868;2023-10-08T10:07:22;17.70;99.90
5172;DHT22;2605;49.770;9.868;2023-10-08T10:09:51;17.80;99.90
5172;DHT22;2605;49.770;9.868;2023-10-08T10:12:21;17.90;99.90
5172;DHT22;2605;49.770;9.868;2023-10-08T10:14:55;17.80;99.90
5172;DHT22;2605;49.770;9.868;2023-10-08T10:17:25;17.90;99.90
5172;DHT22;2605;49.770;9.868;2023-10-08T10:19:57;17.90;99.90
5172;DHT22;2605;49.770;9.868;2023-10-08T10:22:34;17.80;99.90
5172;DHT22;2605;49.770;9.868;2023-10-08T10:25:03;17.80;99.90
5172;DHT22;2605;49.770;9.868;2023-10-08T10:30:33;17.80;99.90
5172;DHT22;2605;49.770;9.868;2023-10-08T10:33:02;17.70;99.90
5172;DHT22;2605;49.770;9.868;2023-10-08T10:35:32;17.60;99.90
5172;DHT22;2605;49.770;9.868;2023-10-08T10:37:58;17.70;99.90
5172;DHT22;2605;49.770;9.868;2023-10-08T10:40:29;17.70;99.90
5172;DHT22;2605;49.770;9.868;2023-10-08T10:43:07;17.90;99.90
5172;DHT22;2605;49.770;9.868;2023-10-08T10:45:34;18.10;99.90
5172;DHT22;2605;49.770;9.868;2023-10-08T10:48:02;18.30;99.90
5172;DHT22;2605;49.770;9.868;2023-10-08T10:50:39;18.40;99.90
5172;DHT22;2605;49.770;9.868;2023-10-08T10:53:17;18.30;99.90
5172;DHT22;2605;49.770;9.868;2023-10-08T10:55:43;18.50;99.90
5172;DHT22;2605;49.770;9.868;2023-10-08T10:58:24;18.40;99.90
5172;DHT22;2605;49.770;9.868;2023-10-08T11:00:50;18.40;99.90
5172;DHT22;2605;49.770;9.868;2023-10-08T11:03:22;18.50;99.90
5172;DHT22;2605;49.770;9.868;2023-10-08T11:05:56;18.60;99.90
5172;DHT22;2605;49.770;9.868;2023-10-08T11:08:26;18.60;99.90
5172;DHT22;2605;49.770;9.868;2023-10-08T11:10:56;18.70;99.90
5172;DHT22;2605;49.770;9.868;2023-10-08T11:13:24;18.80;99.90
5172;DHT22;2605;49.770;9.868;2023-10-08T11:15:54;18.90;99.90
5172;DHT22;2605;49.770;9.868;2023-10-08T11:18:24;18.90;99.90
5172;DHT22;2605;49.770;9.868;2023-10-08T11:20:51;18.80;99.90
5172;DHT22;2605;49.770;9.868;2023-10-08T11:23:37;18.80;99.90
5172;DHT22;2605;49.770;9.868;2023-10-08T11:26:06;18.10;99.90
5172;DHT22;2605;49.770;9.868;2023-10-08T11:28:37;18.90;99.90
5172;DHT22;2605;49.770;9.868;2023-10-08T11:31:13;18.90;99.90
5172;DHT22;2605;49.770;9.868;2023-10-08T11:33:43;18.80;99.90
5172;DHT22;2605;49.770;9.868;2023-10-08T11:36:22;18.90;99.90
5172;DHT22;2605;49.770;9.868;2023-10-08T11:38:55;18.90;99.90
5172;DHT22;2605;49.770;9.868;2023-10-08T11:41:26;19.10;99.90
5172;DHT22;2605;49.770;9.868;2023-10-08T11:43:54;19.10;99.90
5172;DHT22;2605;49.770;9.868;2023-10-08T11:46:30;19.10;99.90
5172;DHT22;2605;49.770;9.868;2023-10-08T11:49:04;19.40;99.90
5172;DHT22;2605;49.770;9.868;2023-10-08T11:51:31;19.30;99.90
5172;DHT22;2605;49.770;9.868;2023-10-08T11:53:59;19.30;99.90
5172;DHT22;2605;49.770;9.868;2023-10-08T11:56:25;19.30;99.90
5172;DHT22;2605;49.770;9.868;2023-10-08T11:58:51;19.20;99.90
5172;DHT22;2605;49.770;9.868;2023-10-08T12:01:18;19.20;99.90
5172;DHT22;2605;49.770;9.868;2023-10-08T12:03:45;19.40;99.90
5172;DHT22;2605;49.770;9.868;2023-10-08T12:06:12;19.40;99.90
5172;DHT22;2605;49.770;9.868;2023-10-08T12:08:41;19.50;99.90
5172;DHT22;2605;49.770;9.868;2023-10-08T12:11:07;19.60;99.90
5172;DHT22;2605;49.770;9.868;2023-10-08T12:13:38;19.70;99.90
5172;DHT22;2605;49.770;9.868;2023-10-08T12:16:04;19.60;99.90
5172;DHT22;2605;49.770;9.868;2023-10-08T12:18:38;19.80;99.90
5172;DHT22;2605;49.770;9.868;2023-10-08T12:21:08;19.80;99.90
5172;DHT22;2605;49.770;9.868;2023-10-08T12:23:39;19.70;99.90
5172;DHT22;2605;49.770;9.868;2023-10-08T12:26:06;19.90;99.90
5172;DHT22;2605;49.770;9.868;2023-10-08T12:28:33;19.70;99.90
5172;DHT22;2605;49.770;9.868;2023-10-08T12:30:59;19.70;99.90
5172;DHT22;2605;49.770;9.868;2023-10-08T12:33:26;19.50;99.90
5172;DHT22;2605;49.770;9.868;2023-10-08T12:35:52;19.30;99.90
5172;DHT22;2605;49.770;9.868;2023-10-08T12:38:36;19.20;99.90
5172;DHT22;2605;49.770;9.868;2023-10-08T12:41:02;19.20;99.90
5172;DHT22;2605;49.770;9.868;2023-10-08T12:43:37;19.20;99.90
5172;DHT22;2605;49.770;9.868;2023-10-08T12:46:04;19.30;99.90
5172;DHT22;2605;49.770;9.868;2023-10-08T12:48:29;19.40;99.90
5172;DHT22;2605;49.770;9.868;2023-10-08T12:50:55;19.60;99.90
5172;DHT22;2605;49.770;9.868;2023-10-08T12:53:26;19.70;99.90
5172;DHT22;2605;49.770;9.868;2023-10-08T12:56:04;20.00;99.90
5172;DHT22;2605;49.770;9.868;2023-10-08T12:58:46;20.10;99.90
5172;DHT22;2605;49.770;9.868;2023-10-08T13:01:15;20.20;99.90
5172;DHT22;2605;49.770;9.868;2023-10-08T13:03:43;20.30;99.90
5172;DHT22;2605;49.770;9.868;2023-10-08T13:06:20;20.30;99.90
5172;DHT22;2605;49.770;9.868;2023-10-08T13:08:54;20.30;99.90
5172;DHT22;2605;49.770;9.868;2023-10-08T13:11:20;20.10;99.90
5172;DHT22;2605;49.770;9.868;2023-10-08T13:13:49;19.90;99.90
5172;DHT22;2605;49.770;9.868;2023-10-08T13:16:15;19.90;99.90
5172;DHT22;2605;49.770;9.868;2023-10-08T13:18:40;19.90;99.90
5172;DHT22;2605;49.770;9.868;2023-10-08T13:21:11;20.00;99.90
5172;DHT22;2605;49.770;9.868;2023-10-08T13:23:37;19.90;99.90
5172;DHT22;2605;49.770;9.868;2023-10-08T13:26:03;19.70;99.90
5172;DHT22;2605;49.770;9.868;2023-10-08T13:28:30;19.70;99.90
5172;DHT22;2605;49.770;9.868;2023-10-08T13:31:02;19.80;99.90
5172;DHT22;2605;49.770;9.868;2023-10-08T13:33:38;19.80;99.90
5172;DHT22;2605;49.770;9.868;2023-10-08T13:36:05;19.90;99.90
5172;DHT22;2605;49.770;9.868;2023-10-08T13:38:34;20.10;99.90
5172;DHT22;2605;49.770;9.868;2023-10-08T13:40:59;20.00;99.90
5172;DHT22;2605;49.770;9.868;2023-10-08T13:43:31;20.00;99.90
5172;DHT22;2605;49.770;9.868;2023-10-08T13:46:04;20.30;99.90
5172;DHT22;2605;49.770;9.868;2023-10-08T13:48:31;20.30;99.90
5172;DHT22;2605;49.770;9.868;2023-10-08T13:51:01;20.70;99.90
5172;DHT22;2605;49.770;9.868;2023-10-08T13:53:29;20.80;99.90
5172;DHT22;2605;49.770;9.868;2023-10-08T13:56:01;20.60;99.90
5172;DHT22;2605;49.770;9.868;2023-10-08T13:58:28;20.40;99.90
5172;DHT22;2605;49.770;9.868;2023-10-08T14:00:59;20.30;99.90
5172;DHT22;2605;49.770;9.868;2023-10-08T14:03:28;20.60;99.90
5172;DHT22;2605;49.770;9.868;2023-10-08T14:05:59;20.80;99.90
5172;DHT22;2605;49.770;9.868;2023-10-08T14:08:31;21.00;99.90
5172;DHT22;2605;49.770;9.868;2023-10-08T14:10:57;21.60;99.90
5172;DHT22;2605;49.770;9.868;2023-10-08T14:13:29;21.60;99.90
5172;DHT22;2605;49.770;9.868;2023-10-08T14:15:57;21.50;99.90
5172;DHT22;2605;49.770;9.868;2023-10-08T14:18:23;21.00;99.90
5172;DHT22;2605;49.770;9.868;2023-10-08T14:20:54;20.90;99.90
5172;DHT22;2605;49.770;9.868;2023-10-08T14:23:23;21.20;99.90
5172;DHT22;2605;49.770;9.868;2023-10-08T14:25:51;21.80;99.90
5172;DHT22;2605;49.770;9.868;2023-10-08T14:28:17;22.30;99.90
5172;DHT22;2605;49.770;9.868;2023-10-08T14:31:06;23.10;99.90
5172;DHT22;2605;49.770;9.868;2023-10-08T14:33:32;24.50;99.90
5172;DHT22;2605;49.770;9.868;2023-10-08T14:36:07;26.00;99.90
5172;DHT22;2605;49.770;9.868;2023-10-08T14:38:52;26.40;99.90
5172;DHT22;2605;49.770;9.868;2023-10-08T14:41:36;26.20;99.90
5172;DHT22;2605;49.770;9.868;2023-10-08T14:44:20;26.40;99.90
5172;DHT22;2605;49.770;9.868;2023-10-08T14:46:45;25.30;99.90
5172;DHT22;2605;49.770;9.868;2023-10-08T14:49:11;24.30;99.90
5172;DHT22;2605;49.770;9.868;2023-10-08T14:51:37;23.50;99.90
5172;DHT22;2605;49.770;9.868;2023-10-08T14:54:06;23.00;99.90
5172;DHT22;2605;49.770;9.868;2023-10-08T14:56:35;22.80;99.90
5172;DHT22;2605;49.770;9.868;2023-10-08T14:59:02;23.00;99.90
5172;DHT22;2605;49.770;9.868;2023-10-08T15:01:29;23.00;99.90
5172;DHT22;2605;49.770;9.868;2023-10-08T15:03:54;23.00;99.90
5172;DHT22;2605;49.770;9.868;2023-10-08T15:06:20;23.80;99.90
5172;DHT22;2605;49.770;9.868;2023-10-08T15:08:46;24.00;99.90
5172;DHT22;2605;49.770;9.868;2023-10-08T15:11:12;24.20;99.90
5172;DHT22;2605;49.770;9.868;2023-10-08T15:13:37;24.60;99.90
5172;DHT22;2605;49.770;9.868;2023-10-08T15:16:11;24.90;99.90
5172;DHT22;2605;49.770;9.868;2023-10-08T15:18:37;25.20;99.90
5172;DHT22;2605;49.770;9.868;2023-10-08T15:21:08;25.50;99.90
5172;DHT22;2605;49.770;9.868;2023-10-08T15:23:34;25.90;99.90
5172;DHT22;2605;49.770;9.868;2023-10-08T15:25:59;26.20;99.90
5172;DHT22;2605;49.770;9.868;2023-10-08T15:28:25;26.10;99.90
5172;DHT22;2605;49.770;9.868;2023-10-08T15:30:51;25.80;99.90
5172;DHT22;2605;49.770;9.868;2023-10-08T15:33:17;25.20;99.90
5172;DHT22;2605;49.770;9.868;2023-10-08T15:35:43;24.70;99.90
5172;DHT22;2605;49.770;9.868;2023-10-08T15:38:08;23.80;99.90
5172;DHT22;2605;49.770;9.868;2023-10-08T15:40:34;23.20;99.90
5172;DHT22;2605;49.770;9.868;2023-10-08T15:42:59;22.80;99.90
5172;DHT22;2605;49.770;9.868;2023-10-08T15:45:25;22.30;99.90
5172;DHT22;2605;49.770;9.868;2023-10-08T15:47:51;21.90;99.90
5172;DHT22;2605;49.770;9.868;2023-10-08T15:50:17;21.70;99.90
5172;DHT22;2605;49.770;9.868;2023-10-08T15:52:47;21.30;99.90
5172;DHT22;2605;49.770;9.868;2023-10-08T15:55:13;20.90;99.90
5172;DHT22;2605;49.770;9.868;2023-10-08T15:57:38;20.60;99.90
5172;DHT22;2605;49.770;9.868;2023-10-08T16:00:06;20.30;99.90
5172;DHT22;2605;49.770;9.868;2023-10-08T16:02:33;19.80;99.90
5172;DHT22;2605;49.770;9.868;2023-10-08T16:04:58;19.60;99.90
5172;DHT22;2605;49.770;9.868;2023-10-08T16:07:23;19.40;99.90
5172;DHT22;2605;49.770;9.868;2023-10-08T16:09:49;19.20;99.90
5172;DHT22;2605;49.770;9.868;2023-10-08T16:12:17;18.90;99.90
5172;DHT22;2605;49.770;9.868;2023-10-08T16:14:43;18.60;99.90
5172;DHT22;2605;49.770;9.868;2023-10-08T16:17:10;18.40;99.90
5172;DHT22;2605;49.770;9.868;2023-10-08T16:19:38;18.30;99.90
5172;DHT22;2605;49.770;9.868;2023-10-08T16:22:04;17.90;99.90
5172;DHT22;2605;49.770;9.868;2023-10-08T16:24:29;17.80;99.90
5172;DHT22;2605;49.770;9.868;2023-10-08T16:26:55;17.60;99.90